Pwllheli, United Kingdom
Current Conditions -  °F | °C
As of 7:50 PM on Friday 19 Dec 2014 (Local Time) from EGOV Reporting Station
Broken Clouds Broken Clouds  
Wind Chill: 39°   Ceiling: 3400
Heat Index: 46°   Visibility: 6mi
Dew Point: 37°   Wind: 21mph
Humidity: 71%   Direction: 260°W
Pressure: 30.12"   Gusts: NA
Location:  52.89°N, 4.41°W
Report Text: EGOV 191950Z AUTO 26018KT 9999 FEW027/// BKN034/// 08/03 Q1020
Loading
Personal Weather Stations






























Interactive Weather Map New forecast layout! Learn more

10-Day Weather Forecast

Advertisements
Track Severe Weather on mobile